createdAt,value
2019-03-15T00:00:57.967Z,4.53
2019-03-15T00:03:28.242Z,6.80
2019-03-15T00:06:01.368Z,8.83
2019-03-15T00:08:31.619Z,5.90
2019-03-15T00:11:01.988Z,7.37
2019-03-15T00:13:32.279Z,7.10
2019-03-15T00:16:02.562Z,5.90
2019-03-15T00:18:32.884Z,6.80
2019-03-15T00:21:03.342Z,7.83
2019-03-15T00:23:33.620Z,6.20
2019-03-15T00:26:04.146Z,7.27
2019-03-15T00:28:34.468Z,6.03
2019-03-15T00:31:04.812Z,5.63
2019-03-15T00:33:36.863Z,5.73
2019-03-15T00:36:07.152Z,5.17
2019-03-15T00:38:37.484Z,6.60
2019-03-15T00:41:07.839Z,10.77
2019-03-15T00:43:38.106Z,6.57
2019-03-15T00:46:08.646Z,6.37
2019-03-15T00:48:38.874Z,7.17
2019-03-15T00:51:09.137Z,6.73
2019-03-15T00:53:39.429Z,11.50
2019-03-15T00:56:09.720Z,5.50
2019-03-15T00:58:40.053Z,6.07
2019-03-15T01:01:10.553Z,8.93
2019-03-15T01:03:40.856Z,8.90
2019-03-15T01:06:11.128Z,7.10
2019-03-15T01:08:41.360Z,6.40
2019-03-15T01:11:11.525Z,7.17
2019-03-15T01:13:41.807Z,5.43
2019-03-15T01:16:12.015Z,7.97
2019-03-15T01:18:42.341Z,7.20
2019-03-15T01:21:12.714Z,7.20
2019-03-15T01:23:42.925Z,5.97
2019-03-15T01:26:13.205Z,8.53
2019-03-15T01:28:43.429Z,7.90
2019-03-15T01:31:13.757Z,11.17
2019-03-15T01:33:44.104Z,7.00
2019-03-15T01:36:14.388Z,7.17
2019-03-15T01:38:44.620Z,5.80
2019-03-15T01:41:14.993Z,9.10
2019-03-15T01:43:45.260Z,8.70
2019-03-15T01:46:15.536Z,4.47
2019-03-15T01:48:45.826Z,9.67
2019-03-15T01:51:16.125Z,10.00
2019-03-15T01:53:46.327Z,7.43
2019-03-15T01:56:16.673Z,8.73
2019-03-15T01:58:48.205Z,8.33
2019-03-15T02:01:18.468Z,8.07
2019-03-15T02:03:48.826Z,8.13
2019-03-15T02:06:19.147Z,9.57
2019-03-15T02:08:49.325Z,9.97
2019-03-15T02:11:19.657Z,10.10
2019-03-15T02:13:49.853Z,8.67
2019-03-15T02:16:20.172Z,8.87
2019-03-15T02:18:50.682Z,12.57
2019-03-15T02:21:20.984Z,12.53
2019-03-15T02:23:51.315Z,9.63
2019-03-15T02:26:23.912Z,7.23
2019-03-15T02:28:54.260Z,10.90
2019-03-15T02:31:24.489Z,4.00
2019-03-15T02:33:54.712Z,10.53
2019-03-15T02:36:25.124Z,8.27
2019-03-15T02:38:55.355Z,10.50
2019-03-15T02:41:25.645Z,10.97
2019-03-15T02:43:55.910Z,6.90
2019-03-15T02:46:26.092Z,8.00
2019-03-15T02:48:56.323Z,6.97
2019-03-15T02:51:26.514Z,8.97
2019-03-15T02:53:56.816Z,8.13
2019-03-15T02:56:27.081Z,8.60
2019-03-15T02:58:57.255Z,7.50
2019-03-15T03:01:35.360Z,7.80
2019-03-15T03:04:05.759Z,5.87
2019-03-15T03:06:36.087Z,5.93
2019-03-15T03:09:08.112Z,7.70
2019-03-15T03:11:38.423Z,9.17
2019-03-15T03:14:08.909Z,8.53
2019-03-15T03:16:39.392Z,4.57
2019-03-15T03:19:09.736Z,7.97
2019-03-15T03:21:40.043Z,10.47
2019-03-15T03:24:10.400Z,7.60
2019-03-15T03:26:40.683Z,6.13
2019-03-15T03:29:11.021Z,10.80
2019-03-15T03:31:41.331Z,10.33
2019-03-15T03:34:12.573Z,8.30
2019-03-15T03:36:43.317Z,9.57
2019-03-15T03:39:13.645Z,13.30
2019-03-15T03:41:43.897Z,12.50
2019-03-15T03:44:14.198Z,10.07
2019-03-15T03:46:44.513Z,10.07
2019-03-15T03:49:14.949Z,13.00
2019-03-15T03:51:45.241Z,13.00
2019-03-15T03:54:15.541Z,7.30
2019-03-15T03:56:45.825Z,9.77
2019-03-15T03:59:16.144Z,10.07
2019-03-15T04:01:46.333Z,7.37
2019-03-15T04:04:16.563Z,11.53
2019-03-15T04:06:46.882Z,12.10
2019-03-15T04:09:17.177Z,9.97
2019-03-15T04:11:55.399Z,11.83
2019-03-15T04:14:19.439Z,31.13
2019-03-15T04:16:49.727Z,16.33
2019-03-15T04:19:19.932Z,7.43
2019-03-15T04:21:50.136Z,12.40
2019-03-15T04:24:20.431Z,9.40
2019-03-15T04:26:50.685Z,6.67
2019-03-15T04:29:20.957Z,9.87
2019-03-15T04:31:51.301Z,9.23
2019-03-15T04:34:21.598Z,7.87
2019-03-15T04:36:51.790Z,9.47
2019-03-15T04:39:22.009Z,6.73
2019-03-15T04:41:52.209Z,9.67
2019-03-15T04:44:22.392Z,7.23
2019-03-15T04:46:52.725Z,7.03
2019-03-15T04:49:23.012Z,6.30
2019-03-15T04:51:53.289Z,6.27
2019-03-15T04:54:23.573Z,5.47
2019-03-15T04:56:53.781Z,9.03
2019-03-15T04:59:24.258Z,8.17
2019-03-15T05:01:54.893Z,6.13
2019-03-15T05:04:25.241Z,5.17
2019-03-15T05:06:55.552Z,8.03
2019-03-15T05:09:25.863Z,9.90
2019-03-15T05:11:56.114Z,8.33
2019-03-15T05:14:26.396Z,10.37
2019-03-15T05:16:56.618Z,6.47
2019-03-15T05:19:26.892Z,11.03
2019-03-15T05:21:57.176Z,9.50
2019-03-15T05:24:27.484Z,9.50
2019-03-15T05:26:57.812Z,13.07
2019-03-15T05:29:28.064Z,9.90
2019-03-15T05:31:58.496Z,11.80
2019-03-15T05:34:28.801Z,10.50
2019-03-15T05:36:59.137Z,13.33
2019-03-15T05:39:29.408Z,7.73
2019-03-15T05:41:59.690Z,6.53
2019-03-15T05:44:29.992Z,7.27
2019-03-15T05:47:00.217Z,11.23
2019-03-15T05:49:30.413Z,12.10
2019-03-15T05:52:00.758Z,12.20
2019-03-15T05:54:31.009Z,9.97
2019-03-15T05:57:01.296Z,10.97
2019-03-15T05:59:31.637Z,10.53
2019-03-15T06:02:02.006Z,10.70
2019-03-15T06:04:32.287Z,10.20
2019-03-15T06:07:02.503Z,7.43
2019-03-15T06:09:32.815Z,13.00
2019-03-15T06:12:03.185Z,10.13
2019-03-15T06:14:33.429Z,8.17
2019-03-15T06:17:06.071Z,7.83
2019-03-15T06:19:36.267Z,16.87
2019-03-15T06:22:06.573Z,15.13
2019-03-15T06:24:36.838Z,9.77
2019-03-15T06:27:07.061Z,6.53
2019-03-15T06:29:37.367Z,10.80
2019-03-15T06:32:07.624Z,13.17
2019-03-15T06:34:39.419Z,10.63
2019-03-15T06:37:09.879Z,11.20
2019-03-15T06:39:40.131Z,13.17
2019-03-15T06:42:10.452Z,11.63
2019-03-15T06:44:40.765Z,10.83
2019-03-15T06:47:11.064Z,10.43
2019-03-15T06:49:41.331Z,7.77
2019-03-15T06:52:11.605Z,8.00
2019-03-15T06:54:41.940Z,10.03
2019-03-15T06:57:12.241Z,8.57
2019-03-15T06:59:42.551Z,13.40
2019-03-15T07:02:12.980Z,5.60
2019-03-15T07:04:43.205Z,8.67
2019-03-15T07:07:15.184Z,9.57
2019-03-15T07:09:45.409Z,5.97
2019-03-15T07:12:15.725Z,9.70
2019-03-15T07:14:45.988Z,5.53
2019-03-15T07:17:16.222Z,8.87
2019-03-15T07:19:46.396Z,4.87
2019-03-15T07:22:19.740Z,9.60
2019-03-15T07:24:48.769Z,12.70
2019-03-15T07:27:19.082Z,8.47
2019-03-15T07:29:49.390Z,5.70
2019-03-15T07:32:19.656Z,5.20
2019-03-15T07:34:49.960Z,5.53
2019-03-15T07:37:20.189Z,2.50
2019-03-15T07:39:50.561Z,4.73
2019-03-15T07:42:20.824Z,10.13
2019-03-15T07:44:51.128Z,6.23
2019-03-15T07:47:21.485Z,5.77
2019-03-15T07:49:51.878Z,8.27
2019-03-15T07:52:22.196Z,7.20
2019-03-15T07:54:52.532Z,13.73
2019-03-15T07:57:22.827Z,10.50
2019-03-15T07:59:53.016Z,4.93
2019-03-15T08:02:23.484Z,3.27
2019-03-15T08:04:53.894Z,10.30
2019-03-15T08:07:35.799Z,9.53
2019-03-15T08:09:56.200Z,11.47
2019-03-15T08:12:27.441Z,6.60
2019-03-15T08:14:58.026Z,4.43
2019-03-15T08:17:28.315Z,9.30
2019-03-15T08:19:58.665Z,10.23
2019-03-15T08:22:28.970Z,7.40
2019-03-15T08:24:59.293Z,3.90
2019-03-15T08:27:29.530Z,3.20
2019-03-15T08:29:59.856Z,9.13
2019-03-15T08:32:30.142Z,5.93
2019-03-15T08:35:03.619Z,5.47
2019-03-15T08:37:32.426Z,7.10
2019-03-15T08:40:02.747Z,3.40
2019-03-15T08:42:34.664Z,8.37
2019-03-15T08:45:06.705Z,3.50
2019-03-15T08:47:37.017Z,10.43
2019-03-15T08:50:14.562Z,7.43
2019-03-15T08:52:43.172Z,9.23
2019-03-15T08:55:13.511Z,10.67
2019-03-15T08:57:43.982Z,7.67
2019-03-15T09:00:14.545Z,13.57
2019-03-15T09:02:47.350Z,14.53
2019-03-15T09:05:19.545Z,8.83
2019-03-15T09:07:49.946Z,13.17
2019-03-15T09:10:24.215Z,10.63
2019-03-15T09:12:52.299Z,7.43
2019-03-15T09:15:22.661Z,8.10
2019-03-15T09:17:52.999Z,8.53
2019-03-15T09:20:23.279Z,4.30
2019-03-15T09:22:53.638Z,11.50
2019-03-15T09:25:24.057Z,10.77
2019-03-15T09:27:54.319Z,5.83
2019-03-15T09:30:24.835Z,9.20
2019-03-15T09:32:55.159Z,7.00
2019-03-15T09:35:25.511Z,7.87
2019-03-15T09:37:55.782Z,7.13
2019-03-15T09:40:26.254Z,4.90
2019-03-15T09:42:59.722Z,4.97
2019-03-15T09:45:30.394Z,11.23
2019-03-15T09:48:05.757Z,14.17
2019-03-15T09:50:50.115Z,10.07
2019-03-15T09:53:08.002Z,8.37
2019-03-15T09:55:38.370Z,8.00
2019-03-15T09:58:08.592Z,9.53
2019-03-15T10:00:38.930Z,14.20
2019-03-15T10:03:21.659Z,15.77
2019-03-15T10:05:41.270Z,8.23
2019-03-15T10:08:11.647Z,9.93
2019-03-15T10:10:41.956Z,9.07
2019-03-15T10:13:12.368Z,8.53
2019-03-15T10:15:48.703Z,8.20
2019-03-15T10:18:19.175Z,7.80
2019-03-15T10:20:49.464Z,7.67
2019-03-15T10:23:19.762Z,3.97
2019-03-15T10:25:51.392Z,6.13
2019-03-15T10:28:21.825Z,4.47
2019-03-15T10:30:52.141Z,11.00
2019-03-15T10:33:22.449Z,8.23
2019-03-15T10:35:52.726Z,8.37
2019-03-15T10:38:23.087Z,6.63
2019-03-15T10:40:53.404Z,9.20
2019-03-15T10:43:23.701Z,8.37
2019-03-15T10:45:54.009Z,11.93
2019-03-15T10:48:25.698Z,9.77
2019-03-15T10:50:56.133Z,7.50
2019-03-15T10:53:28.925Z,6.63
2019-03-15T10:56:00.610Z,5.27
2019-03-15T10:58:31.025Z,8.63
2019-03-15T11:01:01.321Z,8.50
2019-03-15T11:03:32.149Z,7.57
2019-03-15T11:06:02.473Z,5.63
2019-03-15T11:08:32.790Z,7.97
2019-03-15T11:11:03.185Z,6.53
2019-03-15T11:13:33.632Z,6.20
2019-03-15T11:16:03.929Z,11.57
2019-03-15T11:18:34.271Z,12.50
2019-03-15T11:21:04.570Z,11.33
2019-03-15T11:23:34.793Z,7.43
2019-03-15T11:26:13.976Z,7.33
2019-03-15T11:28:41.999Z,17.33
2019-03-15T11:31:12.242Z,7.63
2019-03-15T11:33:42.546Z,5.80
2019-03-15T11:36:20.303Z,2.70
2019-03-15T11:38:50.616Z,10.07
2019-03-15T11:41:21.924Z,6.83
2019-03-15T11:43:54.037Z,8.53
2019-03-15T11:46:26.838Z,7.97
2019-03-15T11:48:57.125Z,1.90
2019-03-15T11:51:27.408Z,1.80
2019-03-15T11:53:57.685Z,0.90
2019-03-15T11:56:27.935Z,4.83
2019-03-15T11:58:58.384Z,0.87
2019-03-15T12:01:37.645Z,1.83
2019-03-15T12:04:11.497Z,2.07
2019-03-15T12:06:41.949Z,4.00
2019-03-15T12:09:12.332Z,3.83
2019-03-15T12:11:42.736Z,3.10
2019-03-15T12:14:13.173Z,1.43
2019-03-15T12:16:43.575Z,1.90
2019-03-15T12:19:14.079Z,1.70
2019-03-15T12:21:44.513Z,1.33
2019-03-15T12:24:14.903Z,0.63
2019-03-15T12:26:45.324Z,3.83
2019-03-15T12:29:15.720Z,3.20
2019-03-15T12:31:46.077Z,2.23
2019-03-15T12:34:16.396Z,1.83
2019-03-15T12:36:46.771Z,0.47
2019-03-15T12:39:17.173Z,4.90
2019-03-15T12:41:47.450Z,2.37
2019-03-15T12:44:17.830Z,1.03
2019-03-15T12:46:50.915Z,0.97
2019-03-15T12:49:21.346Z,1.17
2019-03-15T12:51:51.634Z,0.60
2019-03-15T12:54:21.957Z,0.67
2019-03-15T12:56:53.929Z,1.27
2019-03-15T12:59:24.484Z,1.83
2019-03-15T13:01:54.862Z,1.50
2019-03-15T13:04:25.157Z,4.67
2019-03-15T13:06:55.536Z,1.53
2019-03-15T13:09:25.869Z,0.50
2019-03-15T13:11:56.188Z,3.23
2019-03-15T13:14:26.484Z,1.00
2019-03-15T13:16:56.839Z,4.57
2019-03-15T13:19:27.082Z,0.40
2019-03-15T13:21:57.401Z,2.77
2019-03-15T13:24:27.725Z,0.57
2019-03-15T13:27:07.294Z,5.63
2019-03-15T13:29:30.094Z,0.97
2019-03-15T13:32:00.451Z,5.43
2019-03-15T13:34:30.662Z,2.83
2019-03-15T13:37:01.051Z,1.10
2019-03-15T13:39:31.373Z,1.23
2019-03-15T13:42:01.722Z,1.63
2019-03-15T13:44:31.913Z,0.97
2019-03-15T13:47:02.292Z,1.33
2019-03-15T13:49:32.602Z,0.60
2019-03-15T13:52:02.965Z,1.13
2019-03-15T13:54:33.147Z,3.03
2019-03-15T13:57:03.385Z,1.13
2019-03-15T13:59:33.957Z,0.90
2019-03-15T14:02:07.425Z,1.63
2019-03-15T14:04:36.189Z,2.17
2019-03-15T14:07:06.509Z,3.33
2019-03-15T14:09:36.847Z,4.00
2019-03-15T14:12:07.174Z,1.73
2019-03-15T14:14:37.471Z,1.63
2019-03-15T14:17:07.827Z,1.03
2019-03-15T14:19:38.110Z,0.77
2019-03-15T14:22:08.377Z,2.73
2019-03-15T14:24:38.676Z,0.97
2019-03-15T14:27:09.004Z,1.37
2019-03-15T14:29:39.304Z,2.50
2019-03-15T14:32:09.641Z,1.10
2019-03-15T14:34:42.828Z,2.37
2019-03-15T14:37:13.439Z,0.40
2019-03-15T14:39:43.835Z,1.53
2019-03-15T14:42:14.374Z,1.40
2019-03-15T14:44:44.823Z,3.20
2019-03-15T14:47:15.192Z,4.07
2019-03-15T14:49:45.539Z,2.93
2019-03-15T14:52:15.932Z,1.60
2019-03-15T14:54:46.300Z,1.07
2019-03-15T14:57:16.609Z,1.53
2019-03-15T14:59:46.852Z,2.40
2019-03-15T15:02:17.182Z,3.17
2019-03-15T15:04:47.563Z,1.63
2019-03-15T15:07:17.917Z,4.40
2019-03-15T15:09:48.226Z,1.33
2019-03-15T15:12:18.591Z,1.27
2019-03-15T15:14:48.876Z,0.40
2019-03-15T15:17:19.121Z,1.30
2019-03-15T15:19:53.710Z,1.47
2019-03-15T15:22:24.185Z,0.40
2019-03-15T15:24:54.549Z,1.47
2019-03-15T15:27:25.697Z,0.87
2019-03-15T15:29:56.140Z,0.80
2019-03-15T15:32:26.559Z,0.30
2019-03-15T15:34:56.820Z,0.67
2019-03-15T15:37:27.173Z,0.43
2019-03-15T15:40:00.061Z,0.40
2019-03-15T15:42:29.466Z,0.40
2019-03-15T15:44:59.832Z,1.70
2019-03-15T15:47:30.153Z,0.60
2019-03-15T15:50:00.494Z,1.63
2019-03-15T15:52:30.975Z,0.83
2019-03-15T15:55:01.310Z,0.40
2019-03-15T15:57:31.620Z,0.70
2019-03-15T16:00:01.974Z,4.43
2019-03-15T16:02:32.323Z,1.47
2019-03-15T16:05:02.669Z,0.50
2019-03-15T16:07:33.038Z,0.40
2019-03-15T16:10:04.679Z,1.50
2019-03-15T16:12:35.036Z,1.67
2019-03-15T16:15:06.130Z,2.37
2019-03-15T16:17:36.383Z,1.70
2019-03-15T16:20:07.103Z,0.60
2019-03-15T16:22:37.553Z,0.50
2019-03-15T16:25:08.009Z,0.20
2019-03-15T16:27:38.325Z,2.53
2019-03-15T16:30:10.726Z,4.27
2019-03-15T16:32:40.970Z,1.60
2019-03-15T16:35:11.816Z,0.80
2019-03-15T16:37:42.363Z,2.83
2019-03-15T16:40:12.880Z,0.77
2019-03-15T16:42:43.164Z,0.60
2019-03-15T16:45:15.369Z,0.50
2019-03-15T16:47:45.749Z,0.60
2019-03-15T16:50:16.166Z,1.70
2019-03-15T16:52:46.483Z,2.53
2019-03-15T16:55:16.834Z,1.53
2019-03-15T16:57:47.201Z,0.30
2019-03-15T17:00:17.520Z,0.87
2019-03-15T17:02:47.817Z,2.87
2019-03-15T17:05:18.169Z,1.57
2019-03-15T17:07:48.466Z,0.93
2019-03-15T17:10:18.823Z,0.60
2019-03-15T17:12:49.129Z,0.77
2019-03-15T17:15:19.644Z,0.40
2019-03-15T17:17:50.016Z,3.63
2019-03-15T17:20:20.458Z,0.53
2019-03-15T17:22:50.801Z,0.70
2019-03-15T17:25:21.119Z,3.03
2019-03-15T17:27:51.453Z,1.17
2019-03-15T17:30:21.807Z,1.27
2019-03-15T17:32:52.095Z,2.30
2019-03-15T17:35:22.463Z,0.57
2019-03-15T17:37:52.847Z,0.50
2019-03-15T17:40:23.271Z,2.20
2019-03-15T17:42:53.755Z,1.53
2019-03-15T17:45:24.226Z,0.97
2019-03-15T17:47:55.493Z,3.30
2019-03-15T17:50:29.046Z,0.97
2019-03-15T17:53:09.672Z,2.57
2019-03-15T17:55:41.813Z,2.77
2019-03-15T18:02:17.107Z,1.53
2019-03-15T18:04:56.355Z,0.50
2019-03-15T18:07:32.726Z,2.93
2019-03-15T18:13:20.030Z,1.10
2019-03-15T18:15:50.509Z,1.40
2019-03-15T18:18:21.037Z,3.47
2019-03-15T18:20:54.397Z,0.53
2019-03-15T18:23:24.800Z,0.40
2019-03-15T18:25:55.120Z,0.90
2019-03-15T18:28:25.357Z,1.33
2019-03-15T18:30:58.998Z,1.60
2019-03-15T18:33:27.716Z,2.10
2019-03-15T18:35:58.121Z,1.23
2019-03-15T18:38:28.523Z,0.93
2019-03-15T18:40:58.968Z,2.30
2019-03-15T18:43:29.367Z,1.57
2019-03-15T18:45:59.738Z,0.90
2019-03-15T18:48:30.074Z,2.30
2019-03-15T18:51:00.365Z,1.80
2019-03-15T18:53:30.722Z,2.17
2019-03-15T18:56:01.044Z,0.80
2019-03-15T18:58:31.360Z,1.97
2019-03-15T19:01:01.781Z,1.60
2019-03-15T19:03:32.099Z,1.17
2019-03-15T19:06:02.410Z,3.40
2019-03-15T19:08:32.692Z,3.30
2019-03-15T19:11:03.051Z,2.90
2019-03-15T19:13:33.429Z,2.23
2019-03-15T19:16:03.787Z,0.73
2019-03-15T19:18:34.142Z,1.70
2019-03-15T19:21:04.408Z,0.87
2019-03-15T19:23:34.643Z,0.80
2019-03-15T19:26:05.326Z,1.67
2019-03-15T19:28:35.637Z,0.97
2019-03-15T19:31:05.958Z,0.80
2019-03-15T19:33:36.314Z,0.90
2019-03-15T19:36:06.577Z,0.60
2019-03-15T19:38:36.884Z,2.27
2019-03-15T19:41:07.301Z,0.60
2019-03-15T19:43:37.636Z,1.80
2019-03-15T19:46:07.986Z,0.77
2019-03-15T19:48:38.334Z,2.10
2019-03-15T19:51:08.693Z,0.93
2019-03-15T19:53:39.024Z,2.90
2019-03-15T19:56:09.378Z,2.70
2019-03-15T19:58:39.685Z,5.60
2019-03-15T20:01:10.089Z,5.50
2019-03-15T20:03:44.236Z,7.17
2019-03-15T20:06:12.765Z,2.10
2019-03-15T20:08:49.135Z,2.47
2019-03-15T20:11:19.626Z,7.60
2019-03-15T20:13:52.539Z,4.50
2019-03-15T20:16:34.205Z,1.17
2019-03-15T20:19:11.381Z,5.90
2019-03-15T20:21:46.436Z,4.30
2019-03-15T20:24:17.023Z,4.63
2019-03-15T20:26:47.389Z,3.27
2019-03-15T20:29:17.708Z,1.37
2019-03-15T20:31:48.038Z,4.97
2019-03-15T20:34:18.290Z,2.00
2019-03-15T20:36:48.534Z,1.40
2019-03-15T20:39:18.858Z,0.73
2019-03-15T20:41:49.290Z,2.47
2019-03-15T20:44:28.523Z,2.13
2019-03-15T20:46:51.630Z,2.07
2019-03-15T20:49:21.957Z,1.17
2019-03-15T20:51:52.281Z,1.33
2019-03-15T20:54:22.638Z,3.13
2019-03-15T20:56:52.946Z,2.23
2019-03-15T20:59:23.283Z,3.57
2019-03-15T21:01:53.660Z,3.40
2019-03-15T21:04:24.017Z,2.20
2019-03-15T21:06:54.282Z,4.00
2019-03-15T21:09:24.559Z,0.93
2019-03-15T21:11:54.882Z,1.00
2019-03-15T21:14:25.084Z,3.67
2019-03-15T21:16:55.425Z,0.97
2019-03-15T21:19:25.768Z,0.77
2019-03-15T21:21:56.514Z,1.37
2019-03-15T21:24:26.936Z,1.77
2019-03-15T21:26:57.224Z,1.10
2019-03-15T21:29:27.500Z,0.93
2019-03-15T21:31:57.968Z,0.67
2019-03-15T21:34:28.322Z,1.47
2019-03-15T21:36:58.584Z,2.27
2019-03-15T21:39:28.835Z,1.67
2019-03-15T21:41:59.197Z,1.40
2019-03-15T21:44:29.630Z,1.17
2019-03-15T21:46:59.950Z,1.10
2019-03-15T21:49:30.248Z,0.90
2019-03-15T21:52:02.692Z,0.70
2019-03-15T21:54:33.002Z,1.40
2019-03-15T21:57:03.335Z,0.95
2019-03-15T21:59:33.653Z,1.70
2019-03-15T22:02:04.005Z,0.70
2019-03-15T22:04:34.294Z,1.10
2019-03-15T22:07:04.684Z,0.80
2019-03-15T22:09:35.013Z,1.07
2019-03-15T22:12:05.482Z,1.40
2019-03-15T22:14:35.809Z,1.00
2019-03-15T22:17:06.177Z,0.60
2019-03-15T22:19:36.473Z,0.90
2019-03-15T22:22:06.822Z,1.90
2019-03-15T22:24:37.109Z,1.00
2019-03-15T22:27:07.432Z,1.73
2019-03-15T22:29:37.740Z,1.17
2019-03-15T22:32:07.973Z,0.70
2019-03-15T22:34:38.277Z,0.60
2019-03-15T22:37:08.619Z,0.63
2019-03-15T22:39:38.933Z,1.20
2019-03-15T22:42:09.346Z,0.90
2019-03-15T22:44:39.655Z,0.50
2019-03-15T22:47:09.966Z,2.67
2019-03-15T22:49:40.310Z,0.87
2019-03-15T22:52:10.543Z,1.07
2019-03-15T22:54:40.881Z,0.47
2019-03-15T22:57:12.300Z,0.77
2019-03-15T22:59:43.585Z,1.27
2019-03-15T23:02:13.916Z,1.27
2019-03-15T23:04:44.364Z,0.63
2019-03-15T23:07:15.485Z,1.53
2019-03-15T23:09:45.857Z,1.53
2019-03-15T23:15:15.725Z,0.90
2019-03-15T23:17:46.179Z,0.80
2019-03-15T23:20:16.401Z,1.50
2019-03-15T23:22:46.706Z,0.87
2019-03-15T23:25:17.035Z,0.90
2019-03-15T23:27:47.371Z,1.07
2019-03-15T23:30:17.690Z,0.60
2019-03-15T23:32:48.029Z,0.67
2019-03-15T23:35:29.206Z,0.60
2019-03-15T23:38:01.298Z,1.40
2019-03-15T23:40:31.606Z,0.60
2019-03-15T23:43:06.596Z,0.80
2019-03-15T23:45:36.911Z,0.87
2019-03-15T23:48:07.200Z,1.40
2019-03-15T23:50:37.518Z,0.83
2019-03-15T23:53:07.774Z,1.73
2019-03-15T23:55:38.058Z,0.50
2019-03-15T23:58:08.424Z,1.07
